sensor_id;sensor_type;location;lat;lon;timestamp;pressure;altitude;pressure_sealevel;temperature;humidity
36254;BME280;22291;52.250;21.228;2023-11-21T00:00:26;99618.61;;;-0.61;100.00
36254;BME280;22291;52.250;21.228;2023-11-21T00:02:55;99621.23;;;-0.64;100.00
36254;BME280;22291;52.250;21.228;2023-11-21T00:05:24;99611.64;;;-0.67;100.00
36254;BME280;22291;52.250;21.228;2023-11-21T00:07:51;99607.36;;;-0.68;100.00
36254;BME280;22291;52.250;21.228;2023-11-21T00:10:17;99614.79;;;-0.70;100.00
36254;BME280;22291;52.250;21.228;2023-11-21T00:12:45;99611.87;;;-0.71;100.00
36254;BME280;22291;52.250;21.228;2023-11-21T00:15:17;99611.05;;;-0.72;100.00
36254;BME280;22291;52.250;21.228;2023-11-21T00:17:44;99610.80;;;-0.73;100.00
36254;BME280;22291;52.250;21.228;2023-11-21T00:20:14;99617.68;;;-0.74;100.00
36254;BME280;22291;52.250;21.228;2023-11-21T00:22:41;99617.13;;;-0.77;100.00
36254;BME280;22291;52.250;21.228;2023-11-21T00:25:12;99625.86;;;-0.79;100.00
36254;BME280;22291;52.250;21.228;2023-11-21T00:27:42;99619.98;;;-0.83;100.00
36254;BME280;22291;52.250;21.228;2023-11-21T00:30:11;99626.88;;;-0.82;100.00
36254;BME280;22291;52.250;21.228;2023-11-21T00:32:38;99633.27;;;-0.81;100.00
36254;BME280;22291;52.250;21.228;2023-11-21T00:35:07;99637.80;;;-0.81;100.00
36254;BME280;22291;52.250;21.228;2023-11-21T00:37:37;99649.21;;;-0.81;100.00
36254;BME280;22291;52.250;21.228;2023-11-21T00:40:07;99646.59;;;-0.78;100.00
36254;BME280;22291;52.250;21.228;2023-11-21T00:42:36;99649.81;;;-0.73;100.00
36254;BME280;22291;52.250;21.228;2023-11-21T00:45:07;99642.42;;;-0.71;100.00
36254;BME280;22291;52.250;21.228;2023-11-21T00:47:34;99644.53;;;-0.71;100.00
36254;BME280;22291;52.250;21.228;2023-11-21T00:50:05;99647.20;;;-0.71;100.00
36254;BME280;22291;52.250;21.228;2023-11-21T00:52:33;99649.30;;;-0.73;100.00
36254;BME280;22291;52.250;21.228;2023-11-21T00:55:02;99653.55;;;-0.72;100.00
36254;BME280;22291;52.250;21.228;2023-11-21T00:57:29;99647.92;;;-0.78;100.00
36254;BME280;22291;52.250;21.228;2023-11-21T00:59:55;99647.63;;;-0.79;100.00
36254;BME280;22291;52.250;21.228;2023-11-21T01:02:24;99654.52;;;-0.81;100.00
36254;BME280;22291;52.250;21.228;2023-11-21T01:04:52;99656.09;;;-0.82;100.00
36254;BME280;22291;52.250;21.228;2023-11-21T01:07:18;99657.42;;;-0.82;100.00
36254;BME280;22291;52.250;21.228;2023-11-21T01:09:47;99660.06;;;-0.85;100.00
36254;BME280;22291;52.250;21.228;2023-11-21T01:12:15;99663.50;;;-0.87;100.00
36254;BME280;22291;52.250;21.228;2023-11-21T01:14:44;99659.66;;;-0.96;100.00
36254;BME280;22291;52.250;21.228;2023-11-21T01:17:12;99658.27;;;-1.04;100.00
36254;BME280;22291;52.250;21.228;2023-11-21T01:19:39;99662.44;;;-1.08;100.00
36254;BME280;22291;52.250;21.228;2023-11-21T01:22:06;99664.55;;;-1.10;100.00
36254;BME280;22291;52.250;21.228;2023-11-21T01:24:32;99671.42;;;-1.11;100.00
36254;BME280;22291;52.250;21.228;2023-11-21T01:27:01;99667.98;;;-1.12;100.00
36254;BME280;22291;52.250;21.228;2023-11-21T01:29:28;99668.48;;;-1.13;100.00
36254;BME280;22291;52.250;21.228;2023-11-21T01:31:56;99671.91;;;-1.15;100.00
36254;BME280;22291;52.250;21.228;2023-11-21T01:34:27;99669.26;;;-1.15;100.00
36254;BME280;22291;52.250;21.228;2023-11-21T01:36:53;99680.95;;;-1.13;100.00
36254;BME280;22291;52.250;21.228;2023-11-21T01:39:20;99679.92;;;-1.12;100.00
36254;BME280;22291;52.250;21.228;2023-11-21T01:41:52;99682.33;;;-1.10;100.00
36254;BME280;22291;52.250;21.228;2023-11-21T01:44:18;99682.59;;;-1.09;100.00
36254;BME280;22291;52.250;21.228;2023-11-21T01:46:49;99682.09;;;-1.09;100.00
36254;BME280;22291;52.250;21.228;2023-11-21T01:49:20;99678.11;;;-1.09;100.00
36254;BME280;22291;52.250;21.228;2023-11-21T01:51:47;99679.44;;;-1.09;100.00
36254;BME280;22291;52.250;21.228;2023-11-21T01:54:17;99680.77;;;-1.09;100.00
36254;BME280;22291;52.250;21.228;2023-11-21T01:56:45;99681.80;;;-1.10;100.00
36254;BME280;22291;52.250;21.228;2023-11-21T01:59:18;99688.44;;;-1.10;100.00
36254;BME280;22291;52.250;21.228;2023-11-21T02:01:49;99680.71;;;-1.11;100.00
36254;BME280;22291;52.250;21.228;2023-11-21T02:04:19;99683.08;;;-1.13;100.00
36254;BME280;22291;52.250;21.228;2023-11-21T02:06:47;99683.08;;;-1.13;100.00
36254;BME280;22291;52.250;21.228;2023-11-21T02:09:15;99684.94;;;-1.13;100.00
36254;BME280;22291;52.250;21.228;2023-11-21T02:11:41;99687.06;;;-1.13;100.00
36254;BME280;22291;52.250;21.228;2023-11-21T02:14:10;99687.59;;;-1.13;100.00
36254;BME280;22291;52.250;21.228;2023-11-21T02:16:37;99692.11;;;-1.14;100.00
36254;BME280;22291;52.250;21.228;2023-11-21T02:19:28;99689.72;;;-1.13;100.00
36254;BME280;22291;52.250;21.228;2023-11-21T02:21:57;99688.13;;;-1.14;100.00
36254;BME280;22291;52.250;21.228;2023-11-21T02:24:31;99688.39;;;-1.13;100.00
36254;BME280;22291;52.250;21.228;2023-11-21T02:26:59;99693.70;;;-1.13;100.00
36254;BME280;22291;52.250;21.228;2023-11-21T02:29:27;99692.90;;;-1.13;100.00
36254;BME280;22291;52.250;21.228;2023-11-21T02:31:56;99701.66;;;-1.13;100.00
36254;BME280;22291;52.250;21.228;2023-11-21T02:34:44;99696.87;;;-1.16;100.00
36254;BME280;22291;52.250;21.228;2023-11-21T02:37:11;99695.54;;;-1.16;100.00
36254;BME280;22291;52.250;21.228;2023-11-21T02:39:41;99698.94;;;-1.18;100.00
36254;BME280;22291;52.250;21.228;2023-11-21T02:42:08;99700.27;;;-1.18;100.00
36254;BME280;22291;52.250;21.228;2023-11-21T02:44:35;99700.51;;;-1.19;100.00
36254;BME280;22291;52.250;21.228;2023-11-21T02:47:01;99697.59;;;-1.20;100.00
36254;BME280;22291;52.250;21.228;2023-11-21T02:49:31;99698.39;;;-1.20;100.00
36254;BME280;22291;52.250;21.228;2023-11-21T02:52:02;99701.09;;;-1.17;100.00
36254;BME280;22291;52.250;21.228;2023-11-21T02:54:30;99706.34;;;-1.20;100.00
36254;BME280;22291;52.250;21.228;2023-11-21T02:56:58;99705.80;;;-1.22;100.00
36254;BME280;22291;52.250;21.228;2023-11-21T02:59:24;99708.69;;;-1.23;100.00
36254;BME280;22291;52.250;21.228;2023-11-21T03:01:51;99711.64;;;-1.22;100.00
36254;BME280;22291;52.250;21.228;2023-11-21T03:04:20;99710.33;;;-1.20;100.00
36254;BME280;22291;52.250;21.228;2023-11-21T03:06:50;99712.44;;;-1.22;100.00
36254;BME280;22291;52.250;21.228;2023-11-21T03:09:19;99712.38;;;-1.24;100.00
36254;BME280;22291;52.250;21.228;2023-11-21T03:11:47;99712.91;;;-1.25;100.00
36254;BME280;22291;52.250;21.228;2023-11-21T03:14:16;99716.95;;;-1.22;100.00
36254;BME280;22291;52.250;21.228;2023-11-21T03:16:43;99716.95;;;-1.22;100.00
36254;BME280;22291;52.250;21.228;2023-11-21T03:19:13;99713.78;;;-1.19;100.00
36254;BME280;22291;52.250;21.228;2023-11-21T03:21:40;99714.84;;;-1.20;100.00
36254;BME280;22291;52.250;21.228;2023-11-21T03:24:09;99714.31;;;-1.20;100.00
36254;BME280;22291;52.250;21.228;2023-11-21T03:26:37;99724.86;;;-1.25;100.00
36254;BME280;22291;52.250;21.228;2023-11-21T03:29:07;99726.91;;;-1.29;100.00
36254;BME280;22291;52.250;21.228;2023-11-21T03:31:34;99730.89;;;-1.29;100.00
36254;BME280;22291;52.250;21.228;2023-11-21T03:34:05;99728.81;;;-1.27;100.00
36254;BME280;22291;52.250;21.228;2023-11-21T03:36:32;99733.88;;;-1.26;100.00
36254;BME280;22291;52.250;21.228;2023-11-21T03:39:03;99731.25;;;-1.23;100.00
36254;BME280;22291;52.250;21.228;2023-11-21T03:41:33;99733.13;;;-1.21;100.00
36254;BME280;22291;52.250;21.228;2023-11-21T03:44:01;99731.01;;;-1.22;100.00
36254;BME280;22291;52.250;21.228;2023-11-21T03:46:28;99736.27;;;-1.24;100.00
36254;BME280;22291;52.250;21.228;2023-11-21T03:48:57;99734.14;;;-1.25;100.00
36254;BME280;22291;52.250;21.228;2023-11-21T03:51:25;99735.21;;;-1.26;100.00
36254;BME280;22291;52.250;21.228;2023-11-21T03:53:54;99739.98;;;-1.25;100.00
36254;BME280;22291;52.250;21.228;2023-11-21T03:56:22;99741.00;;;-1.29;100.00
36254;BME280;22291;52.250;21.228;2023-11-21T03:58:51;99744.20;;;-1.27;100.00
36254;BME280;22291;52.250;21.228;2023-11-21T04:01:23;99751.38;;;-1.27;100.00
36254;BME280;22291;52.250;21.228;2023-11-21T04:03:52;99754.53;;;-1.28;100.00
36254;BME280;22291;52.250;21.228;2023-11-21T04:06:23;99748.12;;;-1.32;100.00
36254;BME280;22291;52.250;21.228;2023-11-21T04:08:51;99759.27;;;-1.33;100.00
36254;BME280;22291;52.250;21.228;2023-11-21T04:11:20;99759.50;;;-1.34;100.00
36254;BME280;22291;52.250;21.228;2023-11-21T04:13:49;99757.03;;;-1.38;100.00
36254;BME280;22291;52.250;21.228;2023-11-21T04:16:15;99753.88;;;-1.38;100.00
36254;BME280;22291;52.250;21.228;2023-11-21T04:18:46;99757.03;;;-1.38;100.00
36254;BME280;22291;52.250;21.228;2023-11-21T04:21:15;99761.25;;;-1.40;100.00
36254;BME280;22291;52.250;21.228;2023-11-21T04:23:44;99760.22;;;-1.39;100.00
36254;BME280;22291;52.250;21.228;2023-11-21T04:26:12;99762.34;;;-1.38;100.00
36254;BME280;22291;52.250;21.228;2023-11-21T04:28:41;99765.00;;;-1.38;100.00
36254;BME280;22291;52.250;21.228;2023-11-21T04:31:10;99764.44;;;-1.40;100.00
36254;BME280;22291;52.250;21.228;2023-11-21T04:33:36;99768.47;;;-1.38;100.00
36254;BME280;22291;52.250;21.228;2023-11-21T04:36:07;99769.27;;;-1.37;100.00
36254;BME280;22291;52.250;21.228;2023-11-21T04:38:34;99772.45;;;-1.38;100.00
36254;BME280;22291;52.250;21.228;2023-11-21T04:41:05;99772.45;;;-1.38;100.00
36254;BME280;22291;52.250;21.228;2023-11-21T04:43:32;99770.30;;;-1.38;100.00
36254;BME280;22291;52.250;21.228;2023-11-21T04:46:03;99769.21;;;-1.40;100.00
36254;BME280;22291;52.250;21.228;2023-11-21T04:48:32;99770.54;;;-1.40;100.00
36254;BME280;22291;52.250;21.228;2023-11-21T04:51:01;99768.90;;;-1.43;100.00
36254;BME280;22291;52.250;21.228;2023-11-21T04:53:31;99773.41;;;-1.44;100.00
36254;BME280;22291;52.250;21.228;2023-11-21T04:56:00;99776.30;;;-1.45;100.00
36254;BME280;22291;52.250;21.228;2023-11-21T04:58:29;99779.75;;;-1.45;100.00
36254;BME280;22291;52.250;21.228;2023-11-21T05:00:58;99782.70;;;-1.44;100.00
36254;BME280;22291;52.250;21.228;2023-11-21T05:03:27;99783.48;;;-1.43;100.00
36254;BME280;22291;52.250;21.228;2023-11-21T05:05:59;99786.73;;;-1.41;100.00
36254;BME280;22291;52.250;21.228;2023-11-21T05:08:27;99796.02;;;-1.41;100.00
36254;BME280;22291;52.250;21.228;2023-11-21T05:10:56;99796.02;;;-1.41;100.00
36254;BME280;22291;52.250;21.228;2023-11-21T05:13:22;99796.52;;;-1.42;100.00
36254;BME280;22291;52.250;21.228;2023-11-21T05:15:55;99800.25;;;-1.40;100.00
36254;BME280;22291;52.250;21.228;2023-11-21T05:18:27;99807.98;;;-1.39;100.00
36254;BME280;22291;52.250;21.228;2023-11-21T05:20:57;99810.39;;;-1.37;100.00
36254;BME280;22291;52.250;21.228;2023-11-21T05:23:24;99808.83;;;-1.36;100.00
36254;BME280;22291;52.250;21.228;2023-11-21T05:25:55;99812.03;;;-1.34;100.00
36254;BME280;22291;52.250;21.228;2023-11-21T05:28:24;99807.82;;;-1.32;100.00
36254;BME280;22291;52.250;21.228;2023-11-21T05:30:53;99810.77;;;-1.31;100.00
36254;BME280;22291;52.250;21.228;2023-11-21T05:33:19;99806.78;;;-1.31;100.00
36254;BME280;22291;52.250;21.228;2023-11-21T05:35:48;99807.28;;;-1.32;100.00
36254;BME280;22291;52.250;21.228;2023-11-21T05:38:14;99820.31;;;-1.30;100.00
36254;BME280;22291;52.250;21.228;2023-11-21T05:40:43;99823.77;;;-1.29;100.00
36254;BME280;22291;52.250;21.228;2023-11-21T05:43:09;99817.40;;;-1.31;100.00
36254;BME280;22291;52.250;21.228;2023-11-21T05:45:36;99826.09;;;-1.33;100.00
36254;BME280;22291;52.250;21.228;2023-11-21T05:48:03;99829.28;;;-1.34;100.00
36254;BME280;22291;52.250;21.228;2023-11-21T05:50:31;99826.63;;;-1.34;100.00
36254;BME280;22291;52.250;21.228;2023-11-21T05:52:59;99825.01;;;-1.35;100.00
36254;BME280;22291;52.250;21.228;2023-11-21T05:55:27;99832.17;;;-1.35;100.00
36254;BME280;22291;52.250;21.228;2023-11-21T05:57:54;99831.14;;;-1.34;100.00
36254;BME280;22291;52.250;21.228;2023-11-21T06:00:22;99831.94;;;-1.34;100.00
36254;BME280;22291;52.250;21.228;2023-11-21T06:02:53;99840.19;;;-1.33;100.00
36254;BME280;22291;52.250;21.228;2023-11-21T06:05:23;99843.41;;;-1.30;100.00
36254;BME280;22291;52.250;21.228;2023-11-21T06:07:52;99842.61;;;-1.31;100.00
36254;BME280;22291;52.250;21.228;2023-11-21T06:10:25;99844.17;;;-1.33;100.00
36254;BME280;22291;52.250;21.228;2023-11-21T06:12:53;99847.09;;;-1.32;100.00
36254;BME280;22291;52.250;21.228;2023-11-21T06:15:19;99848.89;;;-1.35;100.00
36254;BME280;22291;52.250;21.228;2023-11-21T06:17:48;99854.70;;;-1.38;100.00
36254;BME280;22291;52.250;21.228;2023-11-21T06:20:20;99859.19;;;-1.38;100.00
36254;BME280;22291;52.250;21.228;2023-11-21T06:22:48;99870.89;;;-1.37;100.00
36254;BME280;22291;52.250;21.228;2023-11-21T06:25:21;99865.08;;;-1.36;100.00
36254;BME280;22291;52.250;21.228;2023-11-21T06:27:49;99875.70;;;-1.36;100.00
36254;BME280;22291;52.250;21.228;2023-11-21T06:30:18;99874.37;;;-1.36;100.00
36254;BME280;22291;52.250;21.228;2023-11-21T06:32:46;99877.02;;;-1.36;100.00
36254;BME280;22291;52.250;21.228;2023-11-21T06:35:12;99875.42;;;-1.35;100.00
36254;BME280;22291;52.250;21.228;2023-11-21T06:37:39;99868.55;;;-1.33;100.00
36254;BME280;22291;52.250;21.228;2023-11-21T06:40:08;99873.06;;;-1.34;100.00
36254;BME280;22291;52.250;21.228;2023-11-21T06:42:35;99876.75;;;-1.35;100.00
36254;BME280;22291;52.250;21.228;2023-11-21T06:45:08;99876.75;;;-1.35;100.00
36254;BME280;22291;52.250;21.228;2023-11-21T06:47:38;99885.25;;;-1.35;100.00
36254;BME280;22291;52.250;21.228;2023-11-21T06:50:08;99888.67;;;-1.37;100.00
36254;BME280;22291;52.250;21.228;2023-11-21T06:52:34;99894.50;;;-1.38;100.00
36254;BME280;22291;52.250;21.228;2023-11-21T06:55:06;99902.73;;;-1.37;100.00
36254;BME280;22291;52.250;21.228;2023-11-21T06:57:36;99904.05;;;-1.37;100.00
36254;BME280;22291;52.250;21.228;2023-11-21T07:00:07;99906.77;;;-1.34;100.00
36254;BME280;22291;52.250;21.228;2023-11-21T07:02:38;99907.33;;;-1.32;100.00
36254;BME280;22291;52.250;21.228;2023-11-21T07:05:07;99906.30;;;-1.31;100.00
36254;BME280;22291;52.250;21.228;2023-11-21T07:07:37;99915.05;;;-1.30;100.00
36254;BME280;22291;52.250;21.228;2023-11-21T07:10:07;99913.75;;;-1.28;100.00
36254;BME280;22291;52.250;21.228;2023-11-21T07:12:34;99916.17;;;-1.26;100.00
36254;BME280;22291;52.250;21.228;2023-11-21T07:15:05;99920.15;;;-1.26;100.00
36254;BME280;22291;52.250;21.228;2023-11-21T07:17:39;99919.38;;;-1.24;100.00
36254;BME280;22291;52.250;21.228;2023-11-21T07:20:09;99922.33;;;-1.23;100.00
36254;BME280;22291;52.250;21.228;2023-11-21T07:22:36;99917.80;;;-1.25;100.00
36254;BME280;22291;52.250;21.228;2023-11-21T07:25:06;99923.87;;;-1.27;100.00
36254;BME280;22291;52.250;21.228;2023-11-21T07:27:35;99925.20;;;-1.27;100.00
36254;BME280;22291;52.250;21.228;2023-11-21T07:30:06;99926.02;;;-1.24;100.00
36254;BME280;22291;52.250;21.228;2023-11-21T07:32:35;99931.86;;;-1.25;100.00
36254;BME280;22291;52.250;21.228;2023-11-21T07:35:08;99935.30;;;-1.24;100.00
36254;BME280;22291;52.250;21.228;2023-11-21T07:37:35;99940.11;;;-1.24;100.00
36254;BME280;22291;52.250;21.228;2023-11-21T07:40:01;99931.09;;;-1.23;100.00
36254;BME280;22291;52.250;21.228;2023-11-21T07:42:29;99939.64;;;-1.21;100.00
36254;BME280;22291;52.250;21.228;2023-11-21T07:44:56;99936.72;;;-1.19;100.00
36254;BME280;22291;52.250;21.228;2023-11-21T07:47:22;99939.43;;;-1.17;100.00
36254;BME280;22291;52.250;21.228;2023-11-21T07:49:51;99935.21;;;-1.15;100.00
36254;BME280;22291;52.250;21.228;2023-11-21T07:52:20;99938.42;;;-1.13;100.00
36254;BME280;22291;52.250;21.228;2023-11-21T07:54:47;99941.14;;;-1.10;100.00
36254;BME280;22291;52.250;21.228;2023-11-21T07:57:14;99935.53;;;-1.11;100.00
36254;BME280;22291;52.250;21.228;2023-11-21T07:59:41;99937.16;;;-1.10;100.00
36254;BME280;22291;52.250;21.228;2023-11-21T08:02:09;99939.75;;;-1.13;100.00
36254;BME280;22291;52.250;21.228;2023-11-21T08:04:35;99938.42;;;-1.13;100.00
36254;BME280;22291;52.250;21.228;2023-11-21T08:07:03;99935.30;;;-1.10;100.00
36254;BME280;22291;52.250;21.228;2023-11-21T08:09:30;99939.81;;;-1.10;100.00
36254;BME280;22291;52.250;21.228;2023-11-21T08:11:57;99943.29;;;-1.07;100.00
36254;BME280;22291;52.250;21.228;2023-11-21T08:14:23;99947.86;;;-1.05;100.00
36254;BME280;22291;52.250;21.228;2023-11-21T08:16:51;99948.42;;;-1.03;100.00
36254;BME280;22291;52.250;21.228;2023-11-21T08:19:18;99957.73;;;-1.01;100.00
36254;BME280;22291;52.250;21.228;2023-11-21T08:21:44;99963.91;;;-0.98;100.00
36254;BME280;22291;52.250;21.228;2023-11-21T08:24:11;99966.61;;;-0.95;100.00
36254;BME280;22291;52.250;21.228;2023-11-21T08:26:37;99962.63;;;-0.95;100.00
36254;BME280;22291;52.250;21.228;2023-11-21T08:29:04;99969.53;;;-0.94;100.00
36254;BME280;22291;52.250;21.228;2023-11-21T08:31:32;99970.36;;;-0.93;100.00
36254;BME280;22291;52.250;21.228;2023-11-21T08:33:59;99975.45;;;-0.89;100.00
36254;BME280;22291;52.250;21.228;2023-11-21T08:36:27;99972.86;;;-0.87;100.00
36254;BME280;22291;52.250;21.228;2023-11-21T08:38:54;99979.28;;;-0.83;100.00
36254;BME280;22291;52.250;21.228;2023-11-21T08:41:21;99976.39;;;-0.81;100.00
36254;BME280;22291;52.250;21.228;2023-11-21T08:43:49;99980.41;;;-0.79;100.00
36254;BME280;22291;52.250;21.228;2023-11-21T08:46:16;99982.88;;;-0.74;100.00
36254;BME280;22291;52.250;21.228;2023-11-21T08:48:43;99987.13;;;-0.73;100.00
36254;BME280;22291;52.250;21.228;2023-11-21T08:51:11;99987.18;;;-0.71;100.00
36254;BME280;22291;52.250;21.228;2023-11-21T08:53:39;99984.28;;;-0.69;100.00
36254;BME280;22291;52.250;21.228;2023-11-21T08:56:07;99989.62;;;-0.67;100.00
36254;BME280;22291;52.250;21.228;2023-11-21T08:58:35;99988.34;;;-0.64;100.00
36254;BME280;22291;52.250;21.228;2023-11-21T09:01:04;99987.02;;;-0.64;100.00
36254;BME280;22291;52.250;21.228;2023-11-21T09:03:33;99994.75;;;-0.63;100.00
36254;BME280;22291;52.250;21.228;2023-11-21T09:06:00;99994.22;;;-0.62;100.00
36254;BME280;22291;52.250;21.228;2023-11-21T09:08:27;99991.33;;;-0.61;100.00
36254;BME280;22291;52.250;21.228;2023-11-21T09:10:55;100006.02;;;-0.55;100.00
36254;BME280;22291;52.250;21.228;2023-11-21T09:13:22;99996.42;;;-0.57;100.00
36254;BME280;22291;52.250;21.228;2023-11-21T09:15:50;100000.99;;;-0.54;100.00
36254;BME280;22291;52.250;21.228;2023-11-21T09:18:17;100002.34;;;-0.52;100.00
36254;BME280;22291;52.250;21.228;2023-11-21T09:20:43;100007.98;;;-0.48;100.00
36254;BME280;22291;52.250;21.228;2023-11-21T09:23:10;100005.08;;;-0.47;100.00
36254;BME280;22291;52.250;21.228;2023-11-21T09:25:36;100006.19;;;-0.43;100.00
36254;BME280;22291;52.250;21.228;2023-11-21T09:28:05;100009.94;;;-0.41;100.00
36254;BME280;22291;52.250;21.228;2023-11-21T09:30:35;100016.63;;;-0.39;100.00
36254;BME280;22291;52.250;21.228;2023-11-21T09:33:02;100016.10;;;-0.38;100.00
36254;BME280;22291;52.250;21.228;2023-11-21T09:35:32;100014.00;;;-0.36;100.00
36254;BME280;22291;52.250;21.228;2023-11-21T09:37:58;100015.38;;;-0.33;100.00
36254;BME280;22291;52.250;21.228;2023-11-21T09:40:27;100017.83;;;-0.29;100.00
36254;BME280;22291;52.250;21.228;2023-11-21T09:42:57;100012.31;;;-0.25;100.00
36254;BME280;22291;52.250;21.228;2023-11-21T09:45:29;100008.35;;;-0.23;100.00
36254;BME280;22291;52.250;21.228;2023-11-21T09:48:04;100007.08;;;-0.20;100.00
36254;BME280;22291;52.250;21.228;2023-11-21T09:50:33;100009.51;;;-0.16;100.00
36254;BME280;22291;52.250;21.228;2023-11-21T09:53:17;100008.49;;;-0.12;100.00
36254;BME280;22291;52.250;21.228;2023-11-21T09:55:51;100012.30;;;-0.08;100.00
36254;BME280;22291;52.250;21.228;2023-11-21T09:58:20;100009.89;;;-0.07;100.00
36254;BME280;22291;52.250;21.228;2023-11-21T10:00:50;100013.45;;;-0.02;100.00
36254;BME280;22291;52.250;21.228;2023-11-21T10:03:19;100016.37;;;-0.01;100.00
36254;BME280;22291;52.250;21.228;2023-11-21T10:05:48;100019.87;;;0.03;100.00
36254;BME280;22291;52.250;21.228;2023-11-21T10:08:17;100021.25;;;0.05;100.00
36254;BME280;22291;52.250;21.228;2023-11-21T10:10:49;100028.71;;;0.08;100.00
36254;BME280;22291;52.250;21.228;2023-11-21T10:13:18;100032.70;;;0.08;100.00
36254;BME280;22291;52.250;21.228;2023-11-21T10:15:50;100027.37;;;0.06;100.00
36254;BME280;22291;52.250;21.228;2023-11-21T10:18:19;100024.46;;;0.07;100.00
36254;BME280;22291;52.250;21.228;2023-11-21T10:21:08;100027.13;;;0.07;100.00
36254;BME280;22291;52.250;21.228;2023-11-21T10:23:36;100021.52;;;0.06;100.00
36254;BME280;22291;52.250;21.228;2023-11-21T10:26:03;100030.05;;;0.08;100.00
36254;BME280;22291;52.250;21.228;2023-11-21T10:28:35;100030.05;;;0.08;100.00
36254;BME280;22291;52.250;21.228;2023-11-21T10:31:07;100035.12;;;0.10;100.00
36254;BME280;22291;52.250;21.228;2023-11-21T10:33:34;100034.55;;;0.05;100.00
36254;BME280;22291;52.250;21.228;2023-11-21T10:36:01;100034.50;;;0.03;100.00
36254;BME280;22291;52.250;21.228;2023-11-21T10:38:33;100035.59;;;0.04;100.00
36254;BME280;22291;52.250;21.228;2023-11-21T10:41:01;100032.39;;;0.05;100.00
36254;BME280;22291;52.250;21.228;2023-11-21T10:43:29;100028.33;;;-0.01;100.00
36254;BME280;22291;52.250;21.228;2023-11-21T10:45:58;100039.22;;;-0.02;100.00
36254;BME280;22291;52.250;21.228;2023-11-21T10:48:25;100036.80;;;-0.04;100.00
36254;BME280;22291;52.250;21.228;2023-11-21T10:50:53;100039.14;;;-0.07;100.00
36254;BME280;22291;52.250;21.228;2023-11-21T10:53:22;100041.80;;;-0.07;100.00
36254;BME280;22291;52.250;21.228;2023-11-21T10:55:50;100045.30;;;-0.04;100.00
36254;BME280;22291;52.250;21.228;2023-11-21T10:58:18;100045.55;;;-0.06;100.00
36254;BME280;22291;52.250;21.228;2023-11-21T11:00:45;100045.55;;;-0.06;100.00
36254;BME280;22291;52.250;21.228;2023-11-21T11:03:12;100049.52;;;-0.08;100.00
36254;BME280;22291;52.250;21.228;2023-11-21T11:05:41;100041.00;;;-0.08;100.00
36254;BME280;22291;52.250;21.228;2023-11-21T11:08:15;100039.44;;;-0.06;100.00
36254;BME280;22291;52.250;21.228;2023-11-21T11:10:46;100054.86;;;-0.06;100.00
36254;BME280;22291;52.250;21.228;2023-11-21T11:13:14;100048.52;;;-0.02;100.00
36254;BME280;22291;52.250;21.228;2023-11-21T11:15:43;100058.92;;;-0.01;100.00
36254;BME280;22291;52.250;21.228;2023-11-21T11:18:16;100054.98;;;0.02;100.00
36254;BME280;22291;52.250;21.228;2023-11-21T11:20:44;100054.49;;;0.05;100.00
36254;BME280;22291;52.250;21.228;2023-11-21T11:23:23;100056.57;;;0.03;100.00
36254;BME280;22291;52.250;21.228;2023-11-21T11:26:20;100052.39;;;0.07;100.00
36254;BME280;22291;52.250;21.228;2023-11-21T11:29:00;100065.45;;;0.09;100.00
36254;BME280;22291;52.250;21.228;2023-11-21T11:37:08;100061.38;;;0.04;100.00
36254;BME280;22291;52.250;21.228;2023-11-21T11:39:42;100060.00;;;0.01;100.00
36254;BME280;22291;52.250;21.228;2023-11-21T11:42:14;100068.22;;;-0.01;100.00
36254;BME280;22291;52.250;21.228;2023-11-21T11:47:23;100071.34;;;-0.06;100.00
36254;BME280;22291;52.250;21.228;2023-11-21T11:50:05;100074.72;;;-0.11;100.00
36254;BME280;22291;52.250;21.228;2023-11-21T11:52:38;100072.86;;;-0.10;100.00
36254;BME280;22291;52.250;21.228;2023-11-21T11:55:12;100072.06;;;-0.11;100.00
36254;BME280;22291;52.250;21.228;2023-11-21T11:57:42;100066.75;;;-0.11;100.00
36254;BME280;22291;52.250;21.228;2023-11-21T12:00:15;100073.69;;;-0.10;100.00
36254;BME280;22291;52.250;21.228;2023-11-21T12:02:48;100069.96;;;-0.09;100.00
36254;BME280;22291;52.250;21.228;2023-11-21T12:05:19;100072.05;;;-0.13;100.00
36254;BME280;22291;52.250;21.228;2023-11-21T12:10:28;100070.95;;;-0.15;100.00
36254;BME280;22291;52.250;21.228;2023-11-21T12:12:59;100079.43;;;-0.15;100.00
36254;BME280;22291;52.250;21.228;2023-11-21T12:15:28;100077.28;;;-0.18;100.00
36254;BME280;22291;52.250;21.228;2023-11-21T12:17:57;100073.56;;;-0.17;100.00
36254;BME280;22291;52.250;21.228;2023-11-21T12:20:27;100078.88;;;-0.17;100.00
36254;BME280;22291;52.250;21.228;2023-11-21T12:22:57;100080.50;;;-0.16;100.00
36254;BME280;22291;52.250;21.228;2023-11-21T12:25:27;100083.42;;;-0.15;100.00
36254;BME280;22291;52.250;21.228;2023-11-21T12:27:56;100083.69;;;-0.17;100.00
36254;BME280;22291;52.250;21.228;2023-11-21T12:30:33;100080.50;;;-0.16;100.00
36254;BME280;22291;52.250;21.228;2023-11-21T12:32:59;100090.34;;;-0.17;100.00
36254;BME280;22291;52.250;21.228;2023-11-21T12:35:35;100086.61;;;-0.16;100.00
36254;BME280;22291;52.250;21.228;2023-11-21T12:38:03;100094.11;;;-0.13;100.00
36254;BME280;22291;52.250;21.228;2023-11-21T12:40:31;100094.66;;;-0.11;100.00
36254;BME280;22291;52.250;21.228;2023-11-21T12:42:59;100110.06;;;-0.13;100.00
36254;BME280;22291;52.250;21.228;2023-11-21T12:45:30;100109.27;;;-0.13;100.00
36254;BME280;22291;52.250;21.228;2023-11-21T12:47:59;100105.52;;;-0.15;99.84
36254;BME280;22291;52.250;21.228;2023-11-21T12:50:31;100104.95;;;-0.17;99.66
36254;BME280;22291;52.250;21.228;2023-11-21T12:53:05;100103.58;;;-0.20;99.71
36254;BME280;22291;52.250;21.228;2023-11-21T12:55:39;100100.44;;;-0.16;99.90
36254;BME280;22291;52.250;21.228;2023-11-21T12:58:09;100100.67;;;-0.18;99.72